createdAt,value
2022-10-21T00:00:09.835Z,12.56
2022-10-21T00:02:36.454Z,12.56
2022-10-21T00:05:04.486Z,12.56
2022-10-21T00:07:30.846Z,12.50
2022-10-21T00:09:57.327Z,12.47
2022-10-21T00:12:23.683Z,12.51
2022-10-21T00:14:53.649Z,12.43
2022-10-21T00:17:22.851Z,12.51
2022-10-21T00:19:49.266Z,12.51
2022-10-21T00:22:15.797Z,12.55
2022-10-21T00:24:42.221Z,12.64
2022-10-21T00:27:08.656Z,12.55
2022-10-21T00:29:35.102Z,12.57
2022-10-21T00:32:01.549Z,12.61
2022-10-21T00:34:30.779Z,12.54
2022-10-21T00:36:57.499Z,12.55
2022-10-21T00:39:23.983Z,12.47
2022-10-21T00:41:51.450Z,12.59
2022-10-21T00:44:17.828Z,12.58
2022-10-21T00:46:50.783Z,12.59
2022-10-21T00:49:32.124Z,12.66
2022-10-21T00:52:01.685Z,12.63
2022-10-21T00:54:29.692Z,12.66
2022-10-21T00:56:57.554Z,12.68
2022-10-21T00:59:28.502Z,12.60
2022-10-21T01:01:55.340Z,12.57
2022-10-21T01:04:22.564Z,12.56
2022-10-21T01:06:49.796Z,12.57
2022-10-21T01:09:19.386Z,12.54
2022-10-21T01:11:47.839Z,12.50
2022-10-21T01:14:33.108Z,12.61
2022-10-21T01:17:43.840Z,12.57
2022-10-21T01:20:25.156Z,12.49
2022-10-21T01:23:28.291Z,12.47
2022-10-21T01:26:09.913Z,12.44
2022-10-21T01:29:10.533Z,12.42
2022-10-21T01:31:59.679Z,12.39
2022-10-21T01:34:41.134Z,12.41
2022-10-21T01:37:24.267Z,12.40
2022-10-21T01:39:59.009Z,12.31
2022-10-21T01:42:29.304Z,12.29
2022-10-21T01:45:06.248Z,12.21
2022-10-21T01:47:36.607Z,12.26
2022-10-21T01:50:15.109Z,12.13
2022-10-21T01:52:46.776Z,12.18
2022-10-21T01:55:17.905Z,12.09
2022-10-21T01:57:51.148Z,11.99
2022-10-21T02:00:17.692Z,12.00
2022-10-21T02:02:48.586Z,12.00
2022-10-21T02:05:29.005Z,11.97
2022-10-21T02:07:55.552Z,11.94
2022-10-21T02:10:25.530Z,11.97
2022-10-21T02:12:54.867Z,11.85
2022-10-21T02:15:23.362Z,11.89
2022-10-21T02:17:55.216Z,11.93
2022-10-21T02:20:25.524Z,11.85
2022-10-21T02:22:52.128Z,11.91
2022-10-21T02:25:25.827Z,11.94
2022-10-21T02:27:53.182Z,11.90
2022-10-21T02:30:20.073Z,11.92
2022-10-21T02:33:06.321Z,11.86
2022-10-21T02:35:46.171Z,11.80
2022-10-21T02:38:26.603Z,11.73
2022-10-21T02:41:03.793Z,11.68
2022-10-21T02:43:36.904Z,11.44
2022-10-21T02:46:08.656Z,11.55
2022-10-21T02:48:36.536Z,11.59
2022-10-21T02:51:05.217Z,11.62
2022-10-21T02:53:32.097Z,11.58
2022-10-21T02:55:58.517Z,11.56
2022-10-21T02:58:24.945Z,11.58
2022-10-21T03:00:51.492Z,11.58
2022-10-21T03:03:18.009Z,11.59
2022-10-21T03:05:44.614Z,11.64
2022-10-21T03:08:11.075Z,11.61
2022-10-21T03:10:37.547Z,11.65
2022-10-21T03:13:04.457Z,11.61
2022-10-21T03:15:32.040Z,11.61
2022-10-21T03:17:58.463Z,11.57
2022-10-21T03:20:24.855Z,11.56
2022-10-21T03:22:52.054Z,11.53
2022-10-21T03:25:18.777Z,11.52
2022-10-21T03:27:45.200Z,11.53
2022-10-21T03:30:11.617Z,11.49
2022-10-21T03:32:38.354Z,11.44
2022-10-21T03:35:05.419Z,11.49
2022-10-21T03:37:31.830Z,11.45
2022-10-21T03:39:58.215Z,11.43
2022-10-21T03:42:24.622Z,11.40
2022-10-21T03:44:51.018Z,11.38
2022-10-21T03:47:17.369Z,11.41
2022-10-21T03:49:43.854Z,11.42
2022-10-21T03:52:10.333Z,11.42
2022-10-21T03:54:36.775Z,11.35
2022-10-21T03:57:03.428Z,11.31
2022-10-21T03:59:29.844Z,11.31
2022-10-21T04:01:57.366Z,11.23
2022-10-21T04:04:23.813Z,11.33
2022-10-21T04:06:50.368Z,11.38
2022-10-21T04:09:17.071Z,11.36
2022-10-21T04:11:43.533Z,11.37
2022-10-21T04:14:12.985Z,11.35
2022-10-21T04:16:41.926Z,11.34
2022-10-21T04:19:08.762Z,11.30
2022-10-21T04:21:35.260Z,11.27
2022-10-21T04:24:02.010Z,11.36
2022-10-21T04:26:28.407Z,11.38
2022-10-21T04:28:54.869Z,11.37
2022-10-21T04:31:21.204Z,11.37
2022-10-21T04:33:47.797Z,11.35
2022-10-21T04:36:14.222Z,11.40
2022-10-21T04:38:41.677Z,11.40
2022-10-21T04:41:08.054Z,11.39
2022-10-21T04:43:34.446Z,11.38
2022-10-21T04:46:00.852Z,11.38
2022-10-21T04:48:27.289Z,11.39
2022-10-21T04:50:54.324Z,11.38
2022-10-21T04:53:22.301Z,11.28
2022-10-21T04:55:53.072Z,11.34
2022-10-21T04:58:22.126Z,11.25
2022-10-21T05:00:50.312Z,11.27
2022-10-21T05:03:16.893Z,11.17
2022-10-21T05:05:43.331Z,11.23
2022-10-21T05:08:11.646Z,11.24
2022-10-21T05:10:38.561Z,11.24
2022-10-21T05:13:06.135Z,11.22
2022-10-21T05:15:33.571Z,11.27
2022-10-21T05:18:00.378Z,11.27
2022-10-21T05:20:26.802Z,11.24
2022-10-21T05:22:53.553Z,11.28
2022-10-21T05:25:22.100Z,11.28
2022-10-21T05:27:49.312Z,11.28
2022-10-21T05:30:15.889Z,11.24
2022-10-21T05:32:42.435Z,11.21
2022-10-21T05:35:09.067Z,11.18
2022-10-21T05:37:35.525Z,11.14
2022-10-21T05:40:02.336Z,11.16
2022-10-21T05:42:28.739Z,11.13
2022-10-21T05:44:55.127Z,11.16
2022-10-21T05:47:21.578Z,11.20
2022-10-21T05:49:49.041Z,11.18
2022-10-21T05:52:15.591Z,11.23
2022-10-21T05:54:42.013Z,11.27
2022-10-21T05:57:08.389Z,11.23
2022-10-21T05:59:34.763Z,11.21
2022-10-21T06:02:01.150Z,11.23
2022-10-21T06:04:27.502Z,11.26
2022-10-21T06:06:54.046Z,11.24
2022-10-21T06:09:20.483Z,11.24
2022-10-21T06:11:46.885Z,11.23
2022-10-21T06:14:13.404Z,11.18
2022-10-21T06:16:39.767Z,11.12
2022-10-21T06:19:06.263Z,11.11
2022-10-21T06:21:32.721Z,11.07
2022-10-21T06:23:59.139Z,11.07
2022-10-21T06:26:25.613Z,11.09
2022-10-21T06:28:52.011Z,11.08
2022-10-21T06:31:21.512Z,11.11
2022-10-21T06:33:48.085Z,11.09
2022-10-21T06:36:14.988Z,11.12
2022-10-21T06:38:41.924Z,11.13
2022-10-21T06:41:13.310Z,11.07
2022-10-21T06:43:41.191Z,11.13
2022-10-21T06:46:11.115Z,11.09
2022-10-21T06:48:37.598Z,11.07
2022-10-21T06:51:11.926Z,11.10
2022-10-21T06:53:39.412Z,11.09
2022-10-21T06:56:17.698Z,11.11
2022-10-21T06:58:48.962Z,11.14
2022-10-21T07:01:28.001Z,11.17
2022-10-21T07:04:01.946Z,11.04
2022-10-21T07:06:28.536Z,11.16
2022-10-21T07:08:59.402Z,11.18
2022-10-21T07:11:27.955Z,11.16
2022-10-21T07:13:54.780Z,11.18
2022-10-21T07:16:27.196Z,11.19
2022-10-21T07:18:53.891Z,11.18
2022-10-21T07:21:22.422Z,11.19
2022-10-21T07:23:51.495Z,11.26
2022-10-21T07:26:20.652Z,11.16
2022-10-21T07:28:47.955Z,11.20
2022-10-21T07:31:15.435Z,11.22
2022-10-21T07:33:42.348Z,11.28
2022-10-21T07:36:13.026Z,11.27
2022-10-21T07:38:40.087Z,11.24
2022-10-21T07:41:06.840Z,11.27
2022-10-21T07:43:33.730Z,11.32
2022-10-21T07:46:03.082Z,11.36
2022-10-21T07:48:32.441Z,11.38
2022-10-21T07:51:07.276Z,11.35
2022-10-21T07:53:34.474Z,11.38
2022-10-21T07:56:23.308Z,11.44
2022-10-21T07:58:51.037Z,11.44
2022-10-21T08:01:18.489Z,11.46
2022-10-21T08:03:45.689Z,11.41
2022-10-21T08:06:14.067Z,11.46
2022-10-21T08:08:40.884Z,11.43
2022-10-21T08:11:08.559Z,11.43
2022-10-21T08:13:35.776Z,11.53
2022-10-21T08:16:05.103Z,11.55
2022-10-21T08:18:32.385Z,11.52
2022-10-21T08:20:58.865Z,11.60
2022-10-21T08:23:26.449Z,11.56
2022-10-21T08:25:55.073Z,11.67
2022-10-21T08:28:23.401Z,11.59
2022-10-21T08:30:49.843Z,11.72
2022-10-21T08:33:16.320Z,11.71
2022-10-21T08:35:43.350Z,11.67
2022-10-21T08:38:10.538Z,11.66
2022-10-21T08:40:40.137Z,11.68
2022-10-21T08:43:09.188Z,11.80
2022-10-21T08:45:44.948Z,11.75
2022-10-21T08:48:17.038Z,11.75
2022-10-21T08:50:48.149Z,11.93
2022-10-21T08:53:24.737Z,11.73
2022-10-21T08:55:57.390Z,11.90
2022-10-21T08:58:24.867Z,11.95
2022-10-21T09:00:56.330Z,11.86
2022-10-21T09:03:33.886Z,12.01
2022-10-21T09:06:18.782Z,12.14
2022-10-21T09:08:57.442Z,12.20
2022-10-21T09:11:33.621Z,11.91
2022-10-21T09:14:13.350Z,12.10
2022-10-21T09:16:56.175Z,12.00
2022-10-21T09:19:59.767Z,12.20
2022-10-21T09:22:44.973Z,12.36
2022-10-21T09:25:22.917Z,12.39
2022-10-21T09:27:56.179Z,12.41
2022-10-21T09:30:24.679Z,12.42
2022-10-21T09:32:56.850Z,12.39
2022-10-21T09:35:36.533Z,12.49
2022-10-21T09:38:27.100Z,12.64
2022-10-21T09:41:01.360Z,12.66
2022-10-21T09:43:27.882Z,12.61
2022-10-21T09:45:56.013Z,12.70
2022-10-21T09:48:29.190Z,12.84
2022-10-21T09:51:00.957Z,12.64
2022-10-21T09:53:34.375Z,12.53
2022-10-21T09:56:17.731Z,12.41
2022-10-21T09:59:11.202Z,13.00
2022-10-21T10:01:39.203Z,13.12
2022-10-21T10:04:29.129Z,12.96
2022-10-21T10:06:56.381Z,12.85
2022-10-21T10:09:28.673Z,13.17
2022-10-21T10:12:04.581Z,13.43
2022-10-21T10:14:38.801Z,13.76
2022-10-21T10:17:23.951Z,13.90
2022-10-21T10:20:05.936Z,14.05
2022-10-21T10:22:33.426Z,14.21
2022-10-21T10:25:11.984Z,14.25
2022-10-21T10:27:59.303Z,14.61
2022-10-21T10:30:42.541Z,15.11
2022-10-21T10:33:26.002Z,15.47
2022-10-21T10:35:59.831Z,15.44
2022-10-21T10:38:34.053Z,15.95
2022-10-21T10:41:13.321Z,16.03
2022-10-21T10:43:58.056Z,16.36
2022-10-21T10:46:33.936Z,16.28
2022-10-21T10:49:23.979Z,16.40
2022-10-21T10:52:07.016Z,16.19
2022-10-21T10:54:34.027Z,15.86
2022-10-21T10:57:05.237Z,15.72
2022-10-21T10:59:49.132Z,15.70
2022-10-21T11:02:40.833Z,15.73
2022-10-21T11:05:26.050Z,16.16
2022-10-21T11:08:12.987Z,17.09
2022-10-21T11:10:46.452Z,17.20
2022-10-21T11:13:19.496Z,16.85
2022-10-21T11:16:11.483Z,16.30
2022-10-21T11:18:46.434Z,16.18
2022-10-21T11:21:54.141Z,16.35
2022-10-21T11:24:39.429Z,16.70
2022-10-21T11:27:34.545Z,17.41
2022-10-21T11:30:21.452Z,17.50
2022-10-21T11:33:02.159Z,17.14
2022-10-21T11:35:40.176Z,17.04
2022-10-21T11:38:28.110Z,17.44
2022-10-21T11:41:13.884Z,17.75
2022-10-21T11:44:15.611Z,17.15
2022-10-21T11:47:24.026Z,16.74
2022-10-21T11:50:11.849Z,16.40
2022-10-21T11:53:02.249Z,16.34
2022-10-21T11:55:46.857Z,16.42
2022-10-21T11:58:16.275Z,16.23
2022-10-21T12:01:07.575Z,16.00
2022-10-21T12:04:07.774Z,15.95
2022-10-21T12:06:43.522Z,16.04
2022-10-21T12:09:19.875Z,15.92
2022-10-21T12:11:54.487Z,15.80
2022-10-21T12:14:30.155Z,15.75
2022-10-21T12:16:59.864Z,15.57
2022-10-21T12:19:27.182Z,15.63
2022-10-21T12:21:53.897Z,15.65
2022-10-21T12:24:51.741Z,15.70
2022-10-21T12:27:40.387Z,15.68
2022-10-21T12:30:23.317Z,15.65
2022-10-21T12:33:30.288Z,15.65
2022-10-21T12:36:18.245Z,15.61
2022-10-21T12:38:47.003Z,15.61
2022-10-21T12:41:37.690Z,15.62
2022-10-21T12:44:25.563Z,15.63
2022-10-21T12:46:56.435Z,15.52
2022-10-21T12:49:32.369Z,15.68
2022-10-21T12:52:24.033Z,15.70
2022-10-21T12:55:02.927Z,15.86
2022-10-21T12:57:36.612Z,15.85
2022-10-21T13:00:22.136Z,15.92
2022-10-21T13:03:11.545Z,15.87
2022-10-21T13:05:37.905Z,15.98
2022-10-21T13:08:22.970Z,15.88
2022-10-21T13:11:05.159Z,15.75
2022-10-21T13:13:43.619Z,15.79
2022-10-21T13:16:16.036Z,15.79
2022-10-21T13:18:54.534Z,15.81
2022-10-21T13:21:33.074Z,15.79
2022-10-21T13:24:16.657Z,15.78
2022-10-21T13:26:58.483Z,15.82
2022-10-21T13:29:31.968Z,15.83
2022-10-21T13:32:21.705Z,15.93
2022-10-21T13:34:51.194Z,15.91
2022-10-21T13:37:36.205Z,15.65
2022-10-21T13:40:13.654Z,15.77
2022-10-21T13:42:44.352Z,15.81
2022-10-21T13:45:25.836Z,15.77
2022-10-21T13:48:04.466Z,15.81
2022-10-21T13:50:33.725Z,15.88
2022-10-21T13:53:03.463Z,15.88
2022-10-21T13:55:29.919Z,15.79
2022-10-21T13:57:56.886Z,15.75
2022-10-21T14:00:30.449Z,15.64
2022-10-21T14:03:05.585Z,15.55
2022-10-21T14:05:47.327Z,15.74
2022-10-21T14:08:45.813Z,15.77
2022-10-21T14:11:20.860Z,15.71
2022-10-21T14:13:49.264Z,15.69
2022-10-21T14:16:30.467Z,15.67
2022-10-21T14:18:57.545Z,15.68
2022-10-21T14:21:26.053Z,15.66
2022-10-21T14:23:53.093Z,15.68
2022-10-21T14:26:20.229Z,15.70
2022-10-21T14:28:49.554Z,15.69
2022-10-21T14:31:17.966Z,15.76
2022-10-21T14:33:46.338Z,15.77
2022-10-21T14:36:25.073Z,15.64
2022-10-21T14:38:59.074Z,15.70
2022-10-21T14:41:35.594Z,15.75
2022-10-21T14:44:11.910Z,15.72
2022-10-21T14:46:44.017Z,15.73
2022-10-21T14:49:29.997Z,15.88
2022-10-21T14:52:08.071Z,15.94
2022-10-21T14:54:47.717Z,15.96
2022-10-21T14:57:32.875Z,16.24
2022-10-21T15:00:00.686Z,16.27
2022-10-21T15:02:30.027Z,16.12
2022-10-21T15:04:59.101Z,16.37
2022-10-21T15:07:30.158Z,16.45
2022-10-21T15:10:14.512Z,16.44
2022-10-21T15:12:46.068Z,16.53
2022-10-21T15:15:40.859Z,16.38
2022-10-21T15:18:22.625Z,16.25
2022-10-21T15:21:11.318Z,16.16
2022-10-21T15:23:41.437Z,16.16
2022-10-21T15:26:25.906Z,16.17
2022-10-21T15:28:53.830Z,16.09
2022-10-21T15:31:23.188Z,16.09
2022-10-21T15:33:51.320Z,16.16
2022-10-21T15:36:19.259Z,16.13
2022-10-21T15:38:47.509Z,16.18
2022-10-21T15:41:18.671Z,16.14
2022-10-21T15:43:57.856Z,16.18
2022-10-21T15:46:29.300Z,16.18
2022-10-21T15:48:57.169Z,16.18
2022-10-21T15:51:23.541Z,16.26
2022-10-21T15:53:49.907Z,16.27
2022-10-21T15:56:18.954Z,16.27
2022-10-21T15:58:45.800Z,16.16
2022-10-21T16:01:15.520Z,16.14
2022-10-21T16:03:42.769Z,16.06
2022-10-21T16:06:20.599Z,15.95
2022-10-21T16:08:48.331Z,16.03
2022-10-21T16:11:25.634Z,16.10
2022-10-21T16:14:01.535Z,16.05
2022-10-21T16:16:28.138Z,16.03
2022-10-21T16:18:54.879Z,16.03
2022-10-21T16:21:22.979Z,16.00
2022-10-21T16:23:49.972Z,16.01
2022-10-21T16:26:22.048Z,16.01
2022-10-21T16:28:51.476Z,15.95
2022-10-21T16:31:18.408Z,15.89
2022-10-21T16:33:45.430Z,15.83
2022-10-21T16:36:16.618Z,15.81
2022-10-21T16:38:44.841Z,15.73
2022-10-21T16:41:13.410Z,15.67
2022-10-21T16:43:40.823Z,15.61
2022-10-21T16:46:24.017Z,15.59
2022-10-21T16:48:52.023Z,15.55
2022-10-21T16:51:19.090Z,15.47
2022-10-21T16:53:46.542Z,15.47
2022-10-21T16:56:13.195Z,15.44
2022-10-21T16:58:39.586Z,15.38
2022-10-21T17:01:08.159Z,15.36
2022-10-21T17:03:34.848Z,15.32
2022-10-21T17:06:01.423Z,15.30
2022-10-21T17:08:27.774Z,15.26
2022-10-21T17:10:54.173Z,15.18
2022-10-21T17:13:20.644Z,15.17
2022-10-21T17:15:47.062Z,15.15
2022-10-21T17:18:15.649Z,15.08
2022-10-21T17:20:42.747Z,15.06
2022-10-21T17:23:10.824Z,14.99
2022-10-21T17:25:37.278Z,14.88
2022-10-21T17:28:03.834Z,14.84
2022-10-21T17:30:30.366Z,14.78
2022-10-21T17:32:56.916Z,14.71
2022-10-21T17:35:23.432Z,14.69
2022-10-21T17:37:51.263Z,14.68
2022-10-21T17:40:21.235Z,14.68
2022-10-21T17:42:47.605Z,14.68
2022-10-21T17:45:15.754Z,14.68
2022-10-21T17:47:43.035Z,14.68
2022-10-21T17:50:11.202Z,14.67
2022-10-21T17:52:38.373Z,14.71
2022-10-21T17:55:06.033Z,14.74
2022-10-21T17:57:33.211Z,14.77
2022-10-21T18:00:00.004Z,14.79
2022-10-21T18:02:33.513Z,14.80
2022-10-21T18:05:00.858Z,14.78
2022-10-21T18:07:28.381Z,14.75
2022-10-21T18:09:54.880Z,14.75
2022-10-21T18:12:22.078Z,14.73
2022-10-21T18:14:48.978Z,14.69
2022-10-21T18:17:16.046Z,14.68
2022-10-21T18:19:45.483Z,14.70
2022-10-21T18:22:11.948Z,14.70
2022-10-21T18:24:38.475Z,14.69
2022-10-21T18:27:06.429Z,14.66
2022-10-21T18:29:33.682Z,14.61
2022-10-21T18:32:00.386Z,14.58
2022-10-21T18:34:27.786Z,14.58
2022-10-21T18:36:54.302Z,14.55
2022-10-21T18:39:20.945Z,14.55
2022-10-21T18:41:47.367Z,14.52
2022-10-21T18:44:14.289Z,14.53
2022-10-21T18:46:42.344Z,14.50
2022-10-21T18:49:12.483Z,14.51
2022-10-21T18:51:38.902Z,14.50
2022-10-21T18:54:05.251Z,14.46
2022-10-21T18:56:31.891Z,14.44
2022-10-21T18:58:58.240Z,14.43
2022-10-21T19:01:25.886Z,14.45
2022-10-21T19:03:54.162Z,14.44
2022-10-21T19:06:39.719Z,14.23
2022-10-21T19:09:11.260Z,14.40
2022-10-21T19:11:37.761Z,14.42
2022-10-21T19:14:05.458Z,14.42
2022-10-21T19:16:34.017Z,14.41
2022-10-21T19:19:00.481Z,14.43
2022-10-21T19:21:27.326Z,14.46
2022-10-21T19:23:54.559Z,14.51
2022-10-21T19:26:23.062Z,14.49
2022-10-21T19:28:50.517Z,14.54
2022-10-21T19:31:21.982Z,14.58
2022-10-21T19:33:48.446Z,14.55
2022-10-21T19:36:14.816Z,14.59
2022-10-21T19:38:44.323Z,14.60
2022-10-21T19:41:14.792Z,14.63
2022-10-21T19:43:41.210Z,14.65
2022-10-21T19:46:08.552Z,14.68
2022-10-21T19:48:36.785Z,14.66
2022-10-21T19:51:04.262Z,14.69
2022-10-21T19:53:33.641Z,14.68
2022-10-21T19:56:04.846Z,14.69
2022-10-21T19:58:32.506Z,14.62
2022-10-21T20:01:11.092Z,14.59
2022-10-21T20:03:38.277Z,14.57
2022-10-21T20:06:06.588Z,14.51
2022-10-21T20:08:34.404Z,14.46
2022-10-21T20:11:06.932Z,14.42
2022-10-21T20:13:34.162Z,14.37
2022-10-21T20:16:01.049Z,14.34
2022-10-21T20:18:28.579Z,14.30
2022-10-21T20:20:56.015Z,14.21
2022-10-21T20:23:26.221Z,14.13
2022-10-21T20:25:55.961Z,13.98
2022-10-21T20:28:22.759Z,13.89
2022-10-21T20:31:06.245Z,13.80
2022-10-21T20:33:36.211Z,13.66
2022-10-21T20:36:27.328Z,13.61
2022-10-21T20:38:55.869Z,13.46
2022-10-21T20:41:27.166Z,13.43
2022-10-21T20:43:54.246Z,13.50
2022-10-21T20:46:23.360Z,13.49
2022-10-21T20:48:51.313Z,13.45
2022-10-21T20:51:20.333Z,13.45
2022-10-21T20:53:49.199Z,13.50
2022-10-21T20:56:15.849Z,13.50
2022-10-21T20:58:42.780Z,13.44
2022-10-21T21:01:15.378Z,13.46
2022-10-21T21:03:42.897Z,13.44
2022-10-21T21:06:11.053Z,13.45
2022-10-21T21:08:44.565Z,13.43
2022-10-21T21:11:16.063Z,13.43
2022-10-21T21:13:44.488Z,13.34
2022-10-21T21:16:21.938Z,13.36
2022-10-21T21:18:57.269Z,13.38
2022-10-21T21:21:26.245Z,13.35
2022-10-21T21:23:53.887Z,13.34
2022-10-21T21:26:28.427Z,13.33
2022-10-21T21:28:55.543Z,13.31
2022-10-21T21:31:25.154Z,13.20
2022-10-21T21:33:52.452Z,13.30
2022-10-21T21:36:20.228Z,13.29
2022-10-21T21:38:48.222Z,13.27
2022-10-21T21:41:16.694Z,13.25
2022-10-21T21:43:48.782Z,13.23
2022-10-21T21:46:22.761Z,13.27
2022-10-21T21:49:04.786Z,13.27
2022-10-21T21:51:32.662Z,13.29
2022-10-21T21:53:59.562Z,13.32
2022-10-21T21:56:26.674Z,13.28
2022-10-21T21:58:57.694Z,13.28
2022-10-21T22:01:26.614Z,13.17
2022-10-21T22:03:53.223Z,13.16
2022-10-21T22:06:22.474Z,13.28
2022-10-21T22:08:49.600Z,13.24
2022-10-21T22:11:19.688Z,13.22
2022-10-21T22:13:46.217Z,13.21
2022-10-21T22:16:14.702Z,13.22
2022-10-21T22:18:41.660Z,13.15
2022-10-21T22:21:10.179Z,13.23
2022-10-21T22:23:37.580Z,13.24
2022-10-21T22:26:04.510Z,13.24
2022-10-21T22:28:32.416Z,13.23
2022-10-21T22:31:01.502Z,13.22
2022-10-21T22:33:28.576Z,13.15
2022-10-21T22:35:55.735Z,13.21
2022-10-21T22:38:22.398Z,13.18
2022-10-21T22:40:59.351Z,13.20
2022-10-21T22:43:26.402Z,13.17
2022-10-21T22:45:55.318Z,13.16
2022-10-21T22:48:27.863Z,13.15
2022-10-21T22:50:54.770Z,13.13
2022-10-21T22:53:21.395Z,13.11
2022-10-21T22:55:47.866Z,13.13
2022-10-21T22:58:17.054Z,13.13
2022-10-21T23:00:43.994Z,13.14
2022-10-21T23:03:10.438Z,13.14
2022-10-21T23:05:36.948Z,13.13
2022-10-21T23:08:03.665Z,13.11
2022-10-21T23:10:30.200Z,13.14
2022-10-21T23:12:56.683Z,13.15
2022-10-21T23:15:23.160Z,13.13
2022-10-21T23:17:49.526Z,13.08
2022-10-21T23:20:15.932Z,13.09
2022-10-21T23:22:42.630Z,13.06
2022-10-21T23:25:09.574Z,13.06
2022-10-21T23:27:36.009Z,13.06
2022-10-21T23:30:02.521Z,13.06
2022-10-21T23:32:28.938Z,12.93
2022-10-21T23:34:55.435Z,13.00
2022-10-21T23:37:21.833Z,12.97
2022-10-21T23:39:48.200Z,12.93
2022-10-21T23:42:14.600Z,12.97
2022-10-21T23:44:40.992Z,12.94
2022-10-21T23:47:07.378Z,12.91
2022-10-21T23:49:33.771Z,12.90
2022-10-21T23:52:00.191Z,12.92
2022-10-21T23:54:26.588Z,12.92
2022-10-21T23:56:52.948Z,12.91
2022-10-21T23:59:21.842Z,12.91
